sensor_id;sensor_type;location;lat;lon;timestamp;pressure;altitude;pressure_sealevel;temperature;humidity
3697;BME280;60662;48.810;8.872;2023-06-14T04:21:27;96172.00;;;10.49;70.14
3697;BME280;60662;48.810;8.872;2023-06-14T09:17:50;96329.06;;;24.62;40.65
3697;BME280;60662;48.810;8.872;2023-06-14T09:20:07;96334.38;;;24.54;40.28
3697;BME280;60662;48.810;8.872;2023-06-14T09:22:24;96333.16;;;24.32;40.63
3697;BME280;60662;48.810;8.872;2023-06-14T09:24:38;96343.66;;;24.33;40.67
3697;BME280;60662;48.810;8.872;2023-06-14T09:26:53;96335.34;;;23.93;41.70
3697;BME280;60662;48.810;8.872;2023-06-14T09:29:16;96334.94;;;23.88;41.90
3697;BME280;60662;48.810;8.872;2023-06-14T09:31:37;96346.16;;;24.35;41.29
3697;BME280;60662;48.810;8.872;2023-06-14T09:34:05;96341.28;;;24.81;40.47
3697;BME280;60662;48.810;8.872;2023-06-14T09:36:39;96343.63;;;25.17;40.36
3697;BME280;60662;48.810;8.872;2023-06-14T09:37:44;96330.44;;;25.40;39.91
3697;BME280;60662;48.810;8.872;2023-06-14T09:40:06;96347.47;;;25.31;40.03
3697;BME280;60662;48.810;8.872;2023-06-14T09:41:08;96340.97;;;25.25;40.09
3697;BME280;60662;48.810;8.872;2023-06-14T09:43:33;96343.63;;;25.17;39.58
3697;BME280;60662;48.810;8.872;2023-06-14T09:44:35;96337.28;;;25.51;39.30
3697;BME280;60662;48.810;8.872;2023-06-14T09:47:09;96345.13;;;25.28;39.88
3697;BME280;60662;48.810;8.872;2023-06-14T09:48:11;96339.47;;;25.48;39.54
3697;BME280;60662;48.810;8.872;2023-06-14T09:49:13;96341.44;;;25.46;39.58
3697;BME280;60662;48.810;8.872;2023-06-14T09:51:49;96345.84;;;25.95;38.80
3697;BME280;60662;48.810;8.872;2023-06-14T09:52:52;96344.09;;;25.70;38.82
3697;BME280;60662;48.810;8.872;2023-06-14T09:54:00;96341.47;;;25.37;38.05
3697;BME280;60662;48.810;8.872;2023-06-14T09:55:12;96349.78;;;24.85;37.87
3697;BME280;60662;48.810;8.872;2023-06-14T09:57:50;96342.97;;;25.07;38.75
3697;BME280;60662;48.810;8.872;2023-06-14T09:58:56;96337.63;;;25.40;39.08
3697;BME280;60662;48.810;8.872;2023-06-14T10:00:09;96340.13;;;25.41;38.98
3697;BME280;60662;48.810;8.872;2023-06-14T10:01:14;96340.44;;;25.63;38.59
3697;BME280;60662;48.810;8.872;2023-06-14T10:02:26;96346.41;;;25.82;36.88
3697;BME280;60662;48.810;8.872;2023-06-14T10:03:28;96344.41;;;25.75;37.27
3697;BME280;60662;48.810;8.872;2023-06-14T10:05:07;96352.66;;;26.14;37.12
3697;BME280;60662;48.810;8.872;2023-06-14T10:06:10;96350.34;;;26.02;36.69
3697;BME280;60662;48.810;8.872;2023-06-14T10:07:18;96350.00;;;26.14;35.76
3697;BME280;60662;48.810;8.872;2023-06-14T10:08:27;96345.78;;;26.19;35.64
3697;BME280;60662;48.810;8.872;2023-06-14T10:09:29;96342.03;;;25.89;35.63
3697;BME280;60662;48.810;8.872;2023-06-14T10:10:33;96341.66;;;25.36;37.18
3697;BME280;60662;48.810;8.872;2023-06-14T10:11:36;96341.28;;;25.55;37.15
3697;BME280;60662;48.810;8.872;2023-06-14T10:12:38;96345.28;;;25.68;36.58
3697;BME280;60662;48.810;8.872;2023-06-14T10:13:41;96340.69;;;25.85;36.01
3697;BME280;60662;48.810;8.872;2023-06-14T10:14:42;96342.56;;;25.84;36.70
3697;BME280;60662;48.810;8.872;2023-06-14T10:16:00;96337.84;;;25.95;36.90
3697;BME280;60662;48.810;8.872;2023-06-14T10:17:10;96336.16;;;26.42;36.21
3697;BME280;60662;48.810;8.872;2023-06-14T10:19:29;96336.75;;;26.52;36.75
3697;BME280;60662;48.810;8.872;2023-06-14T10:20:48;96338.78;;;25.29;36.82
3697;BME280;60662;48.810;8.872;2023-06-14T10:22:06;96333.75;;;24.85;37.48
3697;BME280;60662;48.810;8.872;2023-06-14T10:23:23;96336.03;;;24.63;37.80
3697;BME280;60662;48.810;8.872;2023-06-14T10:24:46;96327.44;;;24.77;38.17
3697;BME280;60662;48.810;8.872;2023-06-14T10:25:50;96331.78;;;25.36;37.81
3697;BME280;60662;48.810;8.872;2023-06-14T10:26:53;96340.50;;;25.95;36.98
3697;BME280;60662;48.810;8.872;2023-06-14T10:28:18;96331.28;;;25.16;37.82
3697;BME280;60662;48.810;8.872;2023-06-14T10:29:20;96339.69;;;25.86;36.98
3697;BME280;60662;48.810;8.872;2023-06-14T10:30:25;96327.91;;;25.64;36.55
3697;BME280;60662;48.810;8.872;2023-06-14T10:31:48;96328.44;;;25.99;34.35
3697;BME280;60662;48.810;8.872;2023-06-14T10:33:06;96318.75;;;24.92;35.21
3697;BME280;60662;48.810;8.872;2023-06-14T10:34:09;96326.38;;;25.78;35.54
3697;BME280;60662;48.810;8.872;2023-06-14T10:35:16;96326.34;;;26.26;34.95
3697;BME280;60662;48.810;8.872;2023-06-14T10:36:31;96332.41;;;26.51;35.56
3697;BME280;60662;48.810;8.872;2023-06-14T10:37:35;96328.50;;;26.93;34.84
3697;BME280;60662;48.810;8.872;2023-06-14T10:38:37;96337.53;;;27.15;33.82
3697;BME280;60662;48.810;8.872;2023-06-14T10:39:44;96332.59;;;26.72;33.50
3697;BME280;60662;48.810;8.872;2023-06-14T10:40:52;96341.31;;;26.43;34.57
3697;BME280;60662;48.810;8.872;2023-06-14T10:41:57;96337.81;;;26.43;34.39
3697;BME280;60662;48.810;8.872;2023-06-14T10:42:58;96345.50;;;26.46;34.46
3697;BME280;60662;48.810;8.872;2023-06-14T10:45:14;96335.66;;;25.98;33.90
3697;BME280;60662;48.810;8.872;2023-06-14T10:46:18;96333.56;;;25.69;34.78
3697;BME280;60662;48.810;8.872;2023-06-14T10:48:30;96331.78;;;26.72;34.34
3697;BME280;60662;48.810;8.872;2023-06-14T10:50:47;96324.03;;;27.47;34.74
3697;BME280;60662;48.810;8.872;2023-06-14T10:51:51;96329.41;;;27.47;34.01
3697;BME280;60662;48.810;8.872;2023-06-14T10:52:54;96341.03;;;27.39;34.34
3697;BME280;60662;48.810;8.872;2023-06-14T10:53:57;96339.22;;;27.31;34.10
3697;BME280;60662;48.810;8.872;2023-06-14T10:56:07;96343.44;;;25.60;36.01
3697;BME280;60662;48.810;8.872;2023-06-14T10:57:08;96346.81;;;26.81;35.28
3697;BME280;60662;48.810;8.872;2023-06-14T10:58:10;96340.50;;;27.20;34.17
3697;BME280;60662;48.810;8.872;2023-06-14T10:59:11;96347.03;;;27.41;33.17
3697;BME280;60662;48.810;8.872;2023-06-14T11:00:14;96340.63;;;26.49;34.48
3697;BME280;60662;48.810;8.872;2023-06-14T11:01:43;96332.88;;;27.09;33.17
3697;BME280;60662;48.810;8.872;2023-06-14T11:04:07;96336.28;;;27.64;33.05
3697;BME280;60662;48.810;8.872;2023-06-14T11:05:14;96332.38;;;27.97;32.27
3697;BME280;60662;48.810;8.872;2023-06-14T11:06:21;96333.75;;;27.63;31.90
3697;BME280;60662;48.810;8.872;2023-06-14T11:10:43;96327.84;;;27.29;32.92
3697;BME280;60662;48.810;8.872;2023-06-14T11:11:48;96332.13;;;26.69;33.26
3697;BME280;60662;48.810;8.872;2023-06-14T11:12:51;96329.13;;;27.42;32.88
3697;BME280;60662;48.810;8.872;2023-06-14T11:13:54;96325.16;;;27.82;32.72
3697;BME280;60662;48.810;8.872;2023-06-14T11:14:56;96333.88;;;28.14;31.76
3697;BME280;60662;48.810;8.872;2023-06-14T11:15:58;96321.38;;;27.38;31.70
3697;BME280;60662;48.810;8.872;2023-06-14T11:17:00;96329.16;;;27.57;32.46
3697;BME280;60662;48.810;8.872;2023-06-14T11:18:06;96335.69;;;28.29;32.79
3697;BME280;60662;48.810;8.872;2023-06-14T11:19:08;96339.22;;;28.44;30.73
3697;BME280;60662;48.810;8.872;2023-06-14T11:20:11;96326.75;;;28.22;31.31
3697;BME280;60662;48.810;8.872;2023-06-14T11:21:20;96333.72;;;28.52;32.13
3697;BME280;60662;48.810;8.872;2023-06-14T11:22:22;96326.28;;;28.33;31.70
3697;BME280;60662;48.810;8.872;2023-06-14T11:23:23;96328.91;;;28.48;31.61
3697;BME280;60662;48.810;8.872;2023-06-14T11:24:25;96330.56;;;29.07;31.46
3697;BME280;60662;48.810;8.872;2023-06-14T11:25:27;96330.06;;;28.97;31.56
3697;BME280;60662;48.810;8.872;2023-06-14T11:26:31;96333.47;;;29.06;31.22
3697;BME280;60662;48.810;8.872;2023-06-14T11:27:35;96325.34;;;28.99;31.07
3697;BME280;60662;48.810;8.872;2023-06-14T11:28:40;96335.03;;;29.00;31.40
3697;BME280;60662;48.810;8.872;2023-06-14T11:29:48;96337.47;;;28.73;30.72
3697;BME280;60662;48.810;8.872;2023-06-14T11:31:01;96339.16;;;28.59;31.27
3697;BME280;60662;48.810;8.872;2023-06-14T11:32:06;96334.03;;;28.64;31.40
3697;BME280;60662;48.810;8.872;2023-06-14T11:33:10;96344.25;;;29.12;30.76
3697;BME280;60662;48.810;8.872;2023-06-14T11:34:12;96332.94;;;27.92;31.27
3697;BME280;60662;48.810;8.872;2023-06-14T11:35:15;96343.16;;;28.48;31.10
3697;BME280;60662;48.810;8.872;2023-06-14T11:36:17;96330.97;;;27.56;32.02
3697;BME280;60662;48.810;8.872;2023-06-14T11:37:19;96336.66;;;28.58;31.23
3697;BME280;60662;48.810;8.872;2023-06-14T11:38:21;96325.41;;;28.32;30.94
3697;BME280;60662;48.810;8.872;2023-06-14T11:39:24;96327.66;;;27.99;30.71
3697;BME280;60662;48.810;8.872;2023-06-14T11:40:27;96328.75;;;28.34;31.05
3697;BME280;60662;48.810;8.872;2023-06-14T11:41:53;96322.50;;;28.12;31.48
3697;BME280;60662;48.810;8.872;2023-06-14T11:43:00;96324.94;;;27.54;31.71
3697;BME280;60662;48.810;8.872;2023-06-14T11:44:02;96325.06;;;27.61;31.91
3697;BME280;60662;48.810;8.872;2023-06-14T11:45:07;96330.75;;;26.81;31.94
3697;BME280;60662;48.810;8.872;2023-06-14T11:46:14;96334.97;;;26.99;32.32
3697;BME280;60662;48.810;8.872;2023-06-14T11:47:16;96324.38;;;27.05;32.04
3697;BME280;60662;48.810;8.872;2023-06-14T11:48:18;96323.22;;;27.61;31.95
3697;BME280;60662;48.810;8.872;2023-06-14T11:49:20;96332.03;;;28.51;31.66
3697;BME280;60662;48.810;8.872;2023-06-14T11:50:22;96326.31;;;28.55;31.14
3697;BME280;60662;48.810;8.872;2023-06-14T11:51:24;96324.03;;;27.77;31.53
3697;BME280;60662;48.810;8.872;2023-06-14T11:52:26;96326.16;;;27.66;32.14
3697;BME280;60662;48.810;8.872;2023-06-14T11:53:28;96317.59;;;26.95;33.08
3697;BME280;60662;48.810;8.872;2023-06-14T11:54:30;96318.78;;;26.92;32.72
3697;BME280;60662;48.810;8.872;2023-06-14T11:55:31;96320.03;;;26.81;33.52
3697;BME280;60662;48.810;8.872;2023-06-14T11:56:36;96318.22;;;26.82;33.43
3697;BME280;60662;48.810;8.872;2023-06-14T11:57:38;96323.84;;;26.32;34.20
3697;BME280;60662;48.810;8.872;2023-06-14T11:58:42;96322.66;;;26.35;33.84
3697;BME280;60662;48.810;8.872;2023-06-14T11:59:45;96329.38;;;26.85;33.48
3697;BME280;60662;48.810;8.872;2023-06-14T12:00:49;96327.09;;;27.59;32.75
3697;BME280;60662;48.810;8.872;2023-06-14T12:01:53;96332.59;;;28.10;32.23
3697;BME280;60662;48.810;8.872;2023-06-14T12:02:57;96326.66;;;28.15;32.33
3697;BME280;60662;48.810;8.872;2023-06-14T12:03:59;96331.28;;;28.21;31.61
3697;BME280;60662;48.810;8.872;2023-06-14T12:05:05;96327.84;;;28.27;31.30
3697;BME280;60662;48.810;8.872;2023-06-14T12:06:09;96330.16;;;27.85;32.14
3697;BME280;60662;48.810;8.872;2023-06-14T12:07:15;96329.50;;;27.53;32.58
3697;BME280;60662;48.810;8.872;2023-06-14T12:08:18;96324.06;;;27.38;32.22
3697;BME280;60662;48.810;8.872;2023-06-14T12:09:23;96330.44;;;27.76;32.08
3697;BME280;60662;48.810;8.872;2023-06-14T12:10:27;96330.44;;;27.76;32.34
3697;BME280;60662;48.810;8.872;2023-06-14T12:11:34;96324.34;;;27.29;32.40
3697;BME280;60662;48.810;8.872;2023-06-14T12:12:38;96324.97;;;27.39;32.67
3697;BME280;60662;48.810;8.872;2023-06-14T12:13:40;96322.00;;;27.26;32.84
3697;BME280;60662;48.810;8.872;2023-06-14T12:14:42;96327.81;;;27.52;32.65
3697;BME280;60662;48.810;8.872;2023-06-14T12:15:44;96330.00;;;27.34;33.04
3697;BME280;60662;48.810;8.872;2023-06-14T12:16:45;96330.63;;;27.59;31.98
3697;BME280;60662;48.810;8.872;2023-06-14T12:17:47;96331.94;;;27.78;32.07
3697;BME280;60662;48.810;8.872;2023-06-14T12:18:49;96330.00;;;28.17;31.91
3697;BME280;60662;48.810;8.872;2023-06-14T12:19:51;96330.00;;;28.54;31.60
3697;BME280;60662;48.810;8.872;2023-06-14T12:20:53;96325.16;;;28.64;31.73
3697;BME280;60662;48.810;8.872;2023-06-14T12:21:54;96329.84;;;29.20;31.34
3697;BME280;60662;48.810;8.872;2023-06-14T12:23:03;96323.69;;;29.48;31.24
3697;BME280;60662;48.810;8.872;2023-06-14T12:24:04;96325.19;;;29.29;30.35
3697;BME280;60662;48.810;8.872;2023-06-14T12:25:08;96329.47;;;29.45;30.50
3697;BME280;60662;48.810;8.872;2023-06-14T12:26:13;96321.78;;;29.70;29.84
3697;BME280;60662;48.810;8.872;2023-06-14T12:27:15;96326.09;;;29.36;30.65
3697;BME280;60662;48.810;8.872;2023-06-14T12:28:17;96320.09;;;28.91;30.54
3697;BME280;60662;48.810;8.872;2023-06-14T12:29:19;96321.88;;;29.05;30.07
3697;BME280;60662;48.810;8.872;2023-06-14T12:30:21;96331.59;;;29.28;31.05
3697;BME280;60662;48.810;8.872;2023-06-14T12:31:22;96327.25;;;28.47;31.49
3697;BME280;60662;48.810;8.872;2023-06-14T12:32:25;96327.97;;;28.04;32.50
3697;BME280;60662;48.810;8.872;2023-06-14T12:33:27;96316.19;;;28.20;31.68
3697;BME280;60662;48.810;8.872;2023-06-14T12:34:28;96320.53;;;28.58;31.56
3697;BME280;60662;48.810;8.872;2023-06-14T12:35:30;96317.91;;;28.43;31.36
3697;BME280;60662;48.810;8.872;2023-06-14T12:36:32;96316.84;;;28.59;31.82
3697;BME280;60662;48.810;8.872;2023-06-14T12:37:34;96310.66;;;28.22;31.76
3697;BME280;60662;48.810;8.872;2023-06-14T12:38:36;96321.81;;;28.77;31.61
3697;BME280;60662;48.810;8.872;2023-06-14T12:39:37;96320.53;;;28.73;31.87
3697;BME280;60662;48.810;8.872;2023-06-14T12:40:40;96321.19;;;27.78;32.87
3697;BME280;60662;48.810;8.872;2023-06-14T12:41:43;96328.13;;;27.88;31.94
3697;BME280;60662;48.810;8.872;2023-06-14T12:42:45;96309.44;;;27.49;32.25
3697;BME280;60662;48.810;8.872;2023-06-14T12:43:48;96324.22;;;27.22;32.73
3697;BME280;60662;48.810;8.872;2023-06-14T12:44:50;96322.41;;;28.06;32.69
3697;BME280;60662;48.810;8.872;2023-06-14T12:45:51;96319.97;;;28.62;31.68
3697;BME280;60662;48.810;8.872;2023-06-14T12:46:52;96325.00;;;29.30;31.43
3697;BME280;60662;48.810;8.872;2023-06-14T12:47:56;96320.19;;;29.26;31.38
3697;BME280;60662;48.810;8.872;2023-06-14T12:48:57;96320.22;;;29.54;30.30
3697;BME280;60662;48.810;8.872;2023-06-14T12:50:02;96321.50;;;29.30;30.00
3697;BME280;60662;48.810;8.872;2023-06-14T12:51:03;96323.31;;;29.51;30.40
3697;BME280;60662;48.810;8.872;2023-06-14T12:52:05;96335.06;;;29.78;30.28
3697;BME280;60662;48.810;8.872;2023-06-14T12:53:07;96324.41;;;29.35;29.39
3697;BME280;60662;48.810;8.872;2023-06-14T12:54:08;96323.16;;;29.59;29.17
3697;BME280;60662;48.810;8.872;2023-06-14T12:55:10;96330.72;;;29.49;30.43
3697;BME280;60662;48.810;8.872;2023-06-14T12:56:11;96325.94;;;29.44;30.06
3697;BME280;60662;48.810;8.872;2023-06-14T12:57:13;96333.03;;;29.52;29.60
3697;BME280;60662;48.810;8.872;2023-06-14T12:58:14;96326.53;;;29.68;28.96
3697;BME280;60662;48.810;8.872;2023-06-14T12:59:18;96331.63;;;29.56;29.52
3697;BME280;60662;48.810;8.872;2023-06-14T13:00:19;96325.16;;;28.79;30.55
3697;BME280;60662;48.810;8.872;2023-06-14T13:01:22;96319.38;;;27.02;32.67
3697;BME280;60662;48.810;8.872;2023-06-14T13:02:24;96324.22;;;27.22;33.15
3697;BME280;60662;48.810;8.872;2023-06-14T13:03:26;96327.75;;;27.23;33.03
3697;BME280;60662;48.810;8.872;2023-06-14T13:04:28;96321.94;;;26.96;33.48
3697;BME280;60662;48.810;8.872;2023-06-14T13:05:30;96330.09;;;26.48;34.00
3697;BME280;60662;48.810;8.872;2023-06-14T13:06:34;96323.66;;;26.88;33.76
3697;BME280;60662;48.810;8.872;2023-06-14T13:07:36;96326.00;;;27.53;32.46
3697;BME280;60662;48.810;8.872;2023-06-14T13:08:37;96323.78;;;27.86;32.70
3697;BME280;60662;48.810;8.872;2023-06-14T13:09:39;96329.06;;;27.95;32.25
3697;BME280;60662;48.810;8.872;2023-06-14T13:10:40;96335.28;;;28.10;31.74
3697;BME280;60662;48.810;8.872;2023-06-14T13:11:41;96338.72;;;28.56;31.45
3697;BME280;60662;48.810;8.872;2023-06-14T13:12:47;96335.13;;;29.07;31.47
3697;BME280;60662;48.810;8.872;2023-06-14T13:13:48;96335.69;;;28.80;31.47
3697;BME280;60662;48.810;8.872;2023-06-14T13:14:50;96334.53;;;29.11;31.22
3697;BME280;60662;48.810;8.872;2023-06-14T13:15:51;96330.25;;;27.77;31.56
3697;BME280;60662;48.810;8.872;2023-06-14T13:16:53;96336.16;;;28.32;31.46
3697;BME280;60662;48.810;8.872;2023-06-14T13:17:55;96334.53;;;28.68;31.22
3697;BME280;60662;48.810;8.872;2023-06-14T13:18:56;96322.19;;;28.22;31.11
3697;BME280;60662;48.810;8.872;2023-06-14T13:19:58;96331.69;;;28.55;31.51
3697;BME280;60662;48.810;8.872;2023-06-14T13:20:59;96336.06;;;28.41;32.22
3697;BME280;60662;48.810;8.872;2023-06-14T13:22:02;96338.97;;;28.09;32.24
3697;BME280;60662;48.810;8.872;2023-06-14T13:23:04;96327.94;;;27.74;32.69
3697;BME280;60662;48.810;8.872;2023-06-14T13:24:08;96329.91;;;25.53;33.66
3697;BME280;60662;48.810;8.872;2023-06-14T13:25:10;96331.56;;;23.78;36.22
3697;BME280;60662;48.810;8.872;2023-06-14T13:26:11;96329.00;;;23.94;35.75
3697;BME280;60662;48.810;8.872;2023-06-14T13:27:14;96328.69;;;24.57;35.74
3697;BME280;60662;48.810;8.872;2023-06-14T13:28:16;96334.09;;;25.31;35.91
3697;BME280;60662;48.810;8.872;2023-06-14T13:29:18;96334.81;;;26.06;34.57
3697;BME280;60662;48.810;8.872;2023-06-14T13:30:19;96338.78;;;26.81;33.40
3697;BME280;60662;48.810;8.872;2023-06-14T13:31:22;96329.97;;;27.19;31.04
3697;BME280;60662;48.810;8.872;2023-06-14T13:32:24;96332.56;;;26.58;31.97
3697;BME280;60662;48.810;8.872;2023-06-14T13:33:26;96333.38;;;27.51;31.76
3697;BME280;60662;48.810;8.872;2023-06-14T13:34:27;96332.94;;;28.22;30.87
3697;BME280;60662;48.810;8.872;2023-06-14T13:35:29;96332.94;;;27.77;31.19
3697;BME280;60662;48.810;8.872;2023-06-14T13:36:30;96334.00;;;28.43;30.41
3697;BME280;60662;48.810;8.872;2023-06-14T13:37:32;96332.38;;;27.97;30.62
3697;BME280;60662;48.810;8.872;2023-06-14T13:38:33;96335.63;;;28.07;29.80
3697;BME280;60662;48.810;8.872;2023-06-14T13:39:35;96336.03;;;28.04;30.14
3697;BME280;60662;48.810;8.872;2023-06-14T13:40:38;96340.34;;;28.72;30.36
3697;BME280;60662;48.810;8.872;2023-06-14T13:41:40;96339.34;;;29.38;29.99
3697;BME280;60662;48.810;8.872;2023-06-14T13:42:41;96338.88;;;29.34;29.59
3697;BME280;60662;48.810;8.872;2023-06-14T13:43:43;96330.22;;;29.67;29.71
3697;BME280;60662;48.810;8.872;2023-06-14T13:44:44;96334.59;;;29.40;29.37
3697;BME280;60662;48.810;8.872;2023-06-14T13:45:46;96335.56;;;29.60;29.37
3697;BME280;60662;48.810;8.872;2023-06-14T13:47:05;96321.47;;;28.65;29.94
3697;BME280;60662;48.810;8.872;2023-06-14T13:48:07;96330.72;;;28.99;29.59
3697;BME280;60662;48.810;8.872;2023-06-14T13:49:08;96317.78;;;28.88;29.65
3697;BME280;60662;48.810;8.872;2023-06-14T13:50:10;96323.84;;;29.40;30.11
3697;BME280;60662;48.810;8.872;2023-06-14T13:51:29;96326.25;;;29.56;30.14
3697;BME280;60662;48.810;8.872;2023-06-14T13:52:31;96315.63;;;29.26;29.65
3697;BME280;60662;48.810;8.872;2023-06-14T13:53:50;96318.81;;;28.87;29.55
3697;BME280;60662;48.810;8.872;2023-06-14T13:55:09;96318.97;;;29.50;29.23
3697;BME280;60662;48.810;8.872;2023-06-14T13:56:11;96318.91;;;28.78;29.79
3697;BME280;60662;48.810;8.872;2023-06-14T13:57:30;96315.47;;;28.84;29.85
3697;BME280;60662;48.810;8.872;2023-06-14T13:58:31;96310.16;;;29.35;29.35
3697;BME280;60662;48.810;8.872;2023-06-14T13:59:33;96320.72;;;29.14;29.01
3697;BME280;60662;48.810;8.872;2023-06-14T14:00:35;96319.31;;;28.97;29.27
3697;BME280;60662;48.810;8.872;2023-06-14T14:01:41;96312.09;;;28.39;29.53
3697;BME280;60662;48.810;8.872;2023-06-14T14:02:42;96317.13;;;28.49;29.52
3697;BME280;60662;48.810;8.872;2023-06-14T14:04:01;96310.44;;;28.96;29.10
3697;BME280;60662;48.810;8.872;2023-06-14T14:05:03;96310.75;;;28.50;29.70
3697;BME280;60662;48.810;8.872;2023-06-14T14:06:22;96315.81;;;28.75;30.44
3697;BME280;60662;48.810;8.872;2023-06-14T14:07:24;96313.59;;;28.63;30.18
3697;BME280;60662;48.810;8.872;2023-06-14T14:08:25;96308.97;;;29.44;29.90
3697;BME280;60662;48.810;8.872;2023-06-14T14:09:45;96310.84;;;29.43;29.60
3697;BME280;60662;48.810;8.872;2023-06-14T14:11:04;96316.31;;;29.57;29.33
3697;BME280;60662;48.810;8.872;2023-06-14T14:12:23;96311.28;;;29.82;29.13
3697;BME280;60662;48.810;8.872;2023-06-14T14:13:26;96311.81;;;29.64;28.43
3697;BME280;60662;48.810;8.872;2023-06-14T14:14:45;96309.44;;;27.79;30.94
3697;BME280;60662;48.810;8.872;2023-06-14T14:15:47;96314.63;;;28.62;30.81
3697;BME280;60662;48.810;8.872;2023-06-14T14:17:07;96320.50;;;29.38;30.48
3697;BME280;60662;48.810;8.872;2023-06-14T14:18:27;96316.84;;;29.24;30.76
3697;BME280;60662;48.810;8.872;2023-06-14T14:19:32;96314.88;;;29.61;30.76
3697;BME280;60662;48.810;8.872;2023-06-14T14:20:51;96318.88;;;29.72;30.60
3697;BME280;60662;48.810;8.872;2023-06-14T14:21:53;96320.16;;;30.11;30.59
3697;BME280;60662;48.810;8.872;2023-06-14T14:23:12;96314.38;;;30.14;29.49
3697;BME280;60662;48.810;8.872;2023-06-14T14:24:14;96310.13;;;29.91;29.94
3697;BME280;60662;48.810;8.872;2023-06-14T14:25:16;96309.63;;;29.46;30.50
3697;BME280;60662;48.810;8.872;2023-06-14T14:26:17;96319.91;;;29.71;30.07
3697;BME280;60662;48.810;8.872;2023-06-14T14:27:36;96326.97;;;29.43;30.13
3697;BME280;60662;48.810;8.872;2023-06-14T14:28:38;96321.88;;;29.27;30.26
3697;BME280;60662;48.810;8.872;2023-06-14T14:29:39;96323.72;;;29.05;29.58
3697;BME280;60662;48.810;8.872;2023-06-14T14:30:43;96314.84;;;28.82;30.62
3697;BME280;60662;48.810;8.872;2023-06-14T14:31:45;96317.13;;;28.86;30.39
3697;BME280;60662;48.810;8.872;2023-06-14T14:32:47;96318.41;;;28.90;30.08
3697;BME280;60662;48.810;8.872;2023-06-14T14:33:49;96314.31;;;29.15;30.18
3697;BME280;60662;48.810;8.872;2023-06-14T14:34:51;96326.34;;;29.41;29.38
3697;BME280;60662;48.810;8.872;2023-06-14T14:35:52;96320.19;;;29.26;30.01
3697;BME280;60662;48.810;8.872;2023-06-14T14:36:54;96322.84;;;29.41;29.68
3697;BME280;60662;48.810;8.872;2023-06-14T14:37:56;96321.50;;;28.87;29.98
3697;BME280;60662;48.810;8.872;2023-06-14T14:38:57;96327.31;;;28.69;29.98
3697;BME280;60662;48.810;8.872;2023-06-14T14:39:59;96323.59;;;29.13;30.05
3697;BME280;60662;48.810;8.872;2023-06-14T14:41:01;96320.50;;;29.16;29.86
3697;BME280;60662;48.810;8.872;2023-06-14T14:42:03;96321.47;;;29.58;29.80
3697;BME280;60662;48.810;8.872;2023-06-14T14:43:04;96323.88;;;29.46;29.27
3697;BME280;60662;48.810;8.872;2023-06-14T14:44:06;96322.47;;;28.79;30.41
3697;BME280;60662;48.810;8.872;2023-06-14T14:45:08;96323.78;;;28.68;30.27
3697;BME280;60662;48.810;8.872;2023-06-14T14:46:09;96314.81;;;28.61;30.53
3697;BME280;60662;48.810;8.872;2023-06-14T14:47:11;96325.16;;;29.00;30.19
3697;BME280;60662;48.810;8.872;2023-06-14T14:48:13;96323.00;;;29.17;30.16
3697;BME280;60662;48.810;8.872;2023-06-14T14:49:14;96329.16;;;29.61;29.90
3697;BME280;60662;48.810;8.872;2023-06-14T14:50:16;96330.06;;;30.04;29.54
3697;BME280;60662;48.810;8.872;2023-06-14T14:51:18;96324.50;;;30.54;29.48
3697;BME280;60662;48.810;8.872;2023-06-14T14:52:19;96329.31;;;30.78;28.99
3697;BME280;60662;48.810;8.872;2023-06-14T14:53:25;96326.25;;;30.33;29.56
3697;BME280;60662;48.810;8.872;2023-06-14T14:54:26;96326.09;;;30.41;29.08
3697;BME280;60662;48.810;8.872;2023-06-14T14:55:30;96320.00;;;27.81;30.74
3697;BME280;60662;48.810;8.872;2023-06-14T14:56:32;96316.84;;;27.24;31.72
3697;BME280;60662;48.810;8.872;2023-06-14T14:57:33;96323.66;;;26.34;32.78
3697;BME280;60662;48.810;8.872;2023-06-14T14:58:35;96321.47;;;27.30;31.41
3697;BME280;60662;48.810;8.872;2023-06-14T14:59:36;96322.09;;;27.70;31.14
3697;BME280;60662;48.810;8.872;2023-06-14T15:00:38;96318.78;;;28.13;30.64
3697;BME280;60662;48.810;8.872;2023-06-14T15:01:39;96330.50;;;28.42;30.62
3697;BME280;60662;48.810;8.872;2023-06-14T15:02:41;96323.88;;;28.08;31.06
3697;BME280;60662;48.810;8.872;2023-06-14T15:03:43;96323.50;;;27.81;30.99
3697;BME280;60662;48.810;8.872;2023-06-14T15:04:59;96322.84;;;27.49;30.79
3697;BME280;60662;48.810;8.872;2023-06-14T15:06:02;96313.63;;;27.67;30.09
3697;BME280;60662;48.810;8.872;2023-06-14T15:07:03;96315.00;;;27.78;29.54
3697;BME280;60662;48.810;8.872;2023-06-14T15:08:05;96317.00;;;27.46;30.26
3697;BME280;60662;48.810;8.872;2023-06-14T15:09:13;96312.97;;;27.80;30.57
3697;BME280;60662;48.810;8.872;2023-06-14T15:10:16;96312.59;;;28.28;30.16
3697;BME280;60662;48.810;8.872;2023-06-14T15:11:17;96313.84;;;28.47;30.20
3697;BME280;60662;48.810;8.872;2023-06-14T15:12:19;96313.13;;;28.23;30.00
3697;BME280;60662;48.810;8.872;2023-06-14T15:13:24;96318.63;;;28.88;29.95
3697;BME280;60662;48.810;8.872;2023-06-14T15:14:26;96316.56;;;28.32;31.24
3697;BME280;60662;48.810;8.872;2023-06-14T15:15:27;96316.94;;;27.69;31.72
3697;BME280;60662;48.810;8.872;2023-06-14T15:16:28;96320.06;;;27.19;32.68
3697;BME280;60662;48.810;8.872;2023-06-14T15:17:30;96314.84;;;26.17;33.46
3697;BME280;60662;48.810;8.872;2023-06-14T15:18:32;96318.44;;;26.40;33.88
3697;BME280;60662;48.810;8.872;2023-06-14T15:19:33;96321.03;;;26.80;33.44
3697;BME280;60662;48.810;8.872;2023-06-14T15:20:37;96315.38;;;26.75;33.42
3697;BME280;60662;48.810;8.872;2023-06-14T15:21:38;96318.50;;;27.25;32.71
3697;BME280;60662;48.810;8.872;2023-06-14T15:22:40;96310.03;;;27.36;32.61
3697;BME280;60662;48.810;8.872;2023-06-14T15:23:42;96314.97;;;27.63;32.14
3697;BME280;60662;48.810;8.872;2023-06-14T15:24:44;96318.56;;;27.17;32.65
3697;BME280;60662;48.810;8.872;2023-06-14T15:25:48;96300.00;;;27.68;32.35
3697;BME280;60662;48.810;8.872;2023-06-14T15:26:50;96319.53;;;28.07;32.61
3697;BME280;60662;48.810;8.872;2023-06-14T15:27:51;96321.63;;;28.42;31.70
3697;BME280;60662;48.810;8.872;2023-06-14T15:28:53;96317.53;;;28.46;31.78
3697;BME280;60662;48.810;8.872;2023-06-14T15:29:54;96327.81;;;28.42;31.40